createdAt,value
2017-11-14T00:00:34.659Z,6.37
2017-11-14T00:03:02.543Z,7.32
2017-11-14T00:05:30.560Z,8.55
2017-11-14T00:07:58.453Z,8.07
2017-11-14T00:10:26.424Z,7.62
2017-11-14T00:12:54.363Z,7.15
2017-11-14T00:15:22.328Z,7.87
2017-11-14T00:17:50.242Z,7.32
2017-11-14T00:20:18.207Z,7.80
2017-11-14T00:22:46.108Z,7.62
2017-11-14T00:25:14.056Z,7.87
2017-11-14T00:27:41.949Z,7.93
2017-11-14T00:30:09.915Z,7.40
2017-11-14T00:32:37.827Z,8.07
2017-11-14T00:35:05.772Z,7.60
2017-11-14T00:37:34.632Z,8.00
2017-11-14T00:40:02.597Z,8.25
2017-11-14T00:42:31.262Z,6.95
2017-11-14T00:44:59.216Z,7.85
2017-11-14T00:47:27.118Z,8.80
2017-11-14T00:49:55.835Z,8.00
2017-11-14T00:52:27.561Z,9.77
2017-11-14T00:54:55.527Z,7.72
2017-11-14T00:57:23.422Z,8.32
2017-11-14T00:59:51.338Z,7.95
2017-11-14T01:02:19.286Z,7.60
2017-11-14T01:04:47.181Z,6.93
2017-11-14T01:07:15.148Z,8.57
2017-11-14T01:09:43.115Z,7.45
2017-11-14T01:12:11.102Z,8.73
2017-11-14T01:14:39.006Z,7.80
2017-11-14T01:17:06.954Z,9.25
2017-11-14T01:19:35.724Z,7.68
2017-11-14T01:22:11.195Z,9.07
2017-11-14T01:24:39.861Z,8.15
2017-11-14T01:27:07.827Z,7.72
2017-11-14T01:29:35.746Z,8.13
2017-11-14T01:32:03.709Z,8.07
2017-11-14T01:34:31.622Z,9.23
2017-11-14T01:36:59.586Z,9.57
2017-11-14T01:39:27.520Z,9.18
2017-11-14T01:41:55.495Z,8.63
2017-11-14T01:44:23.419Z,8.77
2017-11-14T01:46:51.400Z,9.00
2017-11-14T01:49:19.311Z,8.00
2017-11-14T01:51:47.280Z,8.18
2017-11-14T01:54:15.212Z,8.70
2017-11-14T01:56:43.195Z,8.98
2017-11-14T01:59:11.094Z,8.45
2017-11-14T02:01:39.046Z,9.82
2017-11-14T02:04:06.982Z,8.43
2017-11-14T02:06:35.017Z,9.75
2017-11-14T02:09:03.038Z,11.55
2017-11-14T02:11:31.806Z,10.48
2017-11-14T02:13:59.859Z,13.10
2017-11-14T02:16:27.792Z,11.88
2017-11-14T02:18:55.770Z,14.38
2017-11-14T02:21:23.725Z,20.67
2017-11-14T02:23:52.526Z,21.37
2017-11-14T02:26:20.524Z,24.20
2017-11-14T02:28:48.574Z,29.20
2017-11-14T02:31:16.568Z,29.98
2017-11-14T02:33:44.599Z,27.42
2017-11-14T02:36:12.589Z,28.90
2017-11-14T02:38:40.622Z,27.08
2017-11-14T02:41:08.599Z,29.80
2017-11-14T02:43:37.421Z,26.50
2017-11-14T02:46:05.394Z,25.95
2017-11-14T02:48:33.400Z,28.27
2017-11-14T02:51:01.385Z,25.30
2017-11-14T02:53:29.379Z,23.80
2017-11-14T02:55:57.371Z,26.55
2017-11-14T02:58:25.361Z,30.27
2017-11-14T03:00:53.301Z,28.70
2017-11-14T03:03:21.278Z,28.58
2017-11-14T03:05:49.232Z,26.70
2017-11-14T03:08:17.208Z,27.02
2017-11-14T03:10:45.924Z,27.90
2017-11-14T03:13:17.614Z,25.35
2017-11-14T03:15:45.537Z,23.92
2017-11-14T03:18:13.552Z,27.13
2017-11-14T03:20:41.542Z,24.75
2017-11-14T03:23:09.491Z,24.15
2017-11-14T03:25:37.481Z,27.95
2017-11-14T03:28:05.462Z,25.90
2017-11-14T03:30:33.512Z,24.50
2017-11-14T03:33:01.440Z,25.73
2017-11-14T03:35:29.389Z,27.90
2017-11-14T03:37:57.412Z,22.17
2017-11-14T03:40:25.463Z,27.10
2017-11-14T03:42:53.569Z,25.60
2017-11-14T03:45:21.583Z,26.85
2017-11-14T03:47:49.514Z,26.25
2017-11-14T03:50:17.567Z,23.65
2017-11-14T03:52:47.717Z,26.05
2017-11-14T03:55:15.728Z,21.90
2017-11-14T03:57:43.666Z,24.52
2017-11-14T04:00:11.710Z,24.40
2017-11-14T04:02:39.666Z,26.80
2017-11-14T04:05:13.101Z,23.05
2017-11-14T04:07:41.002Z,22.73
2017-11-14T04:10:09.044Z,23.58
2017-11-14T04:12:37.809Z,24.05
2017-11-14T04:15:05.833Z,25.75
2017-11-14T04:17:33.734Z,24.48
2017-11-14T04:20:01.723Z,26.40
2017-11-14T04:22:29.717Z,24.90
2017-11-14T04:24:58.454Z,23.90
2017-11-14T04:27:26.357Z,24.15
2017-11-14T04:29:54.272Z,25.70
2017-11-14T04:32:22.242Z,24.90
2017-11-14T04:34:50.396Z,23.83
2017-11-14T04:37:18.371Z,28.48
2017-11-14T04:39:46.313Z,23.62
2017-11-14T04:42:14.285Z,23.45
2017-11-14T04:44:42.198Z,23.35
2017-11-14T04:47:10.162Z,23.15
2017-11-14T04:49:38.079Z,24.55
2017-11-14T04:52:07.265Z,19.98
2017-11-14T04:54:35.186Z,22.70
2017-11-14T04:57:03.959Z,23.58
2017-11-14T04:59:32.626Z,23.33
2017-11-14T05:02:00.575Z,20.80
2017-11-14T05:04:28.486Z,21.23
2017-11-14T05:06:57.206Z,21.27
2017-11-14T05:09:25.114Z,23.15
2017-11-14T05:11:53.075Z,22.70
2017-11-14T05:14:20.975Z,19.87
2017-11-14T05:16:48.929Z,19.40
2017-11-14T05:19:16.818Z,19.37
2017-11-14T05:21:48.836Z,19.75
2017-11-14T05:24:16.751Z,18.58
2017-11-14T05:26:45.495Z,19.48
2017-11-14T05:29:13.430Z,21.08
2017-11-14T05:31:41.407Z,16.58
2017-11-14T05:34:09.297Z,18.50
2017-11-14T05:36:37.204Z,17.15
2017-11-14T05:39:14.879Z,16.10
2017-11-14T05:41:48.142Z,21.02
2017-11-14T05:44:17.146Z,17.50
2017-11-14T05:46:45.062Z,16.87
2017-11-14T05:49:13.020Z,16.92
2017-11-14T05:51:40.914Z,17.33
2017-11-14T05:54:09.641Z,17.90
2017-11-14T05:56:43.504Z,16.48
2017-11-14T05:59:16.833Z,16.73
2017-11-14T06:01:45.801Z,19.42
2017-11-14T06:04:13.774Z,21.02
2017-11-14T06:06:41.685Z,19.77
2017-11-14T06:09:09.643Z,18.10
2017-11-14T06:11:37.542Z,18.83
2017-11-14T06:14:05.495Z,17.60
2017-11-14T06:16:33.398Z,18.05
2017-11-14T06:19:01.363Z,19.00
2017-11-14T06:21:29.303Z,17.92
2017-11-14T06:23:57.297Z,18.67
2017-11-14T06:26:25.219Z,20.70
2017-11-14T06:28:53.188Z,17.92
2017-11-14T06:31:21.105Z,21.85
2017-11-14T06:33:49.287Z,18.83
2017-11-14T06:36:17.185Z,16.80
2017-11-14T06:38:45.151Z,19.70
2017-11-14T06:41:13.090Z,19.98
2017-11-14T06:43:41.063Z,19.67
2017-11-14T06:46:08.958Z,18.37
2017-11-14T06:48:37.697Z,18.05
2017-11-14T06:51:05.603Z,17.62
2017-11-14T06:53:33.604Z,17.52
2017-11-14T06:56:01.504Z,16.73
2017-11-14T06:58:29.476Z,15.60
2017-11-14T07:00:57.377Z,18.25
2017-11-14T07:03:25.482Z,14.30
2017-11-14T07:05:53.453Z,15.63
2017-11-14T07:08:21.358Z,16.02
2017-11-14T07:10:49.314Z,13.80
2017-11-14T07:13:17.205Z,17.40
2017-11-14T07:15:45.178Z,14.80
2017-11-14T07:18:13.102Z,15.57
2017-11-14T07:20:41.065Z,15.05
2017-11-14T07:23:09.002Z,13.88
2017-11-14T07:25:37.025Z,15.05
2017-11-14T07:28:04.922Z,15.35
2017-11-14T07:30:32.885Z,15.73
2017-11-14T07:33:02.031Z,15.35
2017-11-14T07:35:30.785Z,13.62
2017-11-14T07:37:58.702Z,13.57
2017-11-14T07:40:26.673Z,14.60
2017-11-14T07:42:54.581Z,13.00
2017-11-14T07:45:22.563Z,14.70
2017-11-14T07:47:50.483Z,12.98
2017-11-14T07:50:18.435Z,14.80
2017-11-14T07:52:46.369Z,15.15
2017-11-14T07:55:14.351Z,17.42
2017-11-14T07:57:42.266Z,16.20
2017-11-14T08:00:10.240Z,13.90
2017-11-14T08:02:38.324Z,12.23
2017-11-14T08:05:06.278Z,11.20
2017-11-14T08:07:34.249Z,9.85
2017-11-14T08:10:02.138Z,10.63
2017-11-14T08:12:30.116Z,10.40
2017-11-14T08:14:58.084Z,10.00
2017-11-14T08:17:26.092Z,9.27
2017-11-14T08:19:54.071Z,11.05
2017-11-14T08:22:22.015Z,9.88
2017-11-14T08:24:50.001Z,11.12
2017-11-14T08:27:17.970Z,11.05
2017-11-14T08:29:45.913Z,12.20
2017-11-14T08:32:14.013Z,12.43
2017-11-14T08:34:41.924Z,10.75
2017-11-14T08:37:09.997Z,10.90
2017-11-14T08:39:37.906Z,9.38
2017-11-14T08:42:05.909Z,9.43
2017-11-14T08:44:34.600Z,8.80
2017-11-14T08:47:03.317Z,9.32
2017-11-14T08:49:31.220Z,9.30
2017-11-14T08:51:59.207Z,10.05
2017-11-14T08:54:27.156Z,9.23
2017-11-14T08:56:55.167Z,10.93
2017-11-14T08:59:23.890Z,12.07
2017-11-14T09:01:51.938Z,10.90
2017-11-14T09:04:19.890Z,10.43
2017-11-14T09:06:48.676Z,12.70
2017-11-14T09:09:16.611Z,11.77
2017-11-14T09:11:44.612Z,11.70
2017-11-14T09:14:12.622Z,13.33
2017-11-14T09:16:40.556Z,11.30
2017-11-14T09:19:08.562Z,10.20
2017-11-14T09:21:36.552Z,10.17
2017-11-14T09:24:04.577Z,10.03
2017-11-14T09:26:33.324Z,11.20
2017-11-14T09:29:01.359Z,10.27
2017-11-14T09:31:29.372Z,8.90
2017-11-14T09:33:57.355Z,8.30
2017-11-14T09:36:25.307Z,7.70
2017-11-14T09:38:53.349Z,7.90
2017-11-14T09:41:21.355Z,6.83
2017-11-14T09:43:49.406Z,6.63
2017-11-14T09:46:17.381Z,6.80
2017-11-14T09:48:45.406Z,5.93
2017-11-14T09:51:14.131Z,5.17
2017-11-14T09:53:42.609Z,5.70
2017-11-14T09:56:10.778Z,5.50
2017-11-14T09:58:38.796Z,5.63
2017-11-14T10:01:06.774Z,4.70
2017-11-14T10:03:34.883Z,5.40
2017-11-14T10:06:10.057Z,5.50
2017-11-14T10:08:38.311Z,5.80
2017-11-14T10:11:06.323Z,4.80
2017-11-14T10:13:37.959Z,5.17
2017-11-14T10:16:05.941Z,3.33
2017-11-14T10:18:33.972Z,4.20
2017-11-14T10:21:02.281Z,4.13
2017-11-14T10:23:30.843Z,4.17
2017-11-14T10:25:58.903Z,3.90
2017-11-14T10:28:26.896Z,3.60
2017-11-14T10:30:54.926Z,3.50
2017-11-14T10:33:23.710Z,3.97
2017-11-14T10:35:51.765Z,3.77
2017-11-14T10:38:19.766Z,4.80
2017-11-14T10:40:48.643Z,4.97
2017-11-14T10:43:17.926Z,3.90
2017-11-14T10:45:46.009Z,4.97
2017-11-14T10:48:13.995Z,4.27
2017-11-14T10:50:42.040Z,3.87
2017-11-14T10:53:10.045Z,5.00
2017-11-14T10:55:38.853Z,4.90
2017-11-14T10:58:06.826Z,4.73
2017-11-14T11:00:42.225Z,4.70
2017-11-14T11:03:10.184Z,4.43
2017-11-14T11:05:38.235Z,4.13
2017-11-14T11:08:06.229Z,3.80
2017-11-14T11:10:34.257Z,4.10
2017-11-14T11:13:02.496Z,3.37
2017-11-14T11:15:30.504Z,4.40
2017-11-14T11:17:58.581Z,3.80
2017-11-14T11:20:26.614Z,4.10
2017-11-14T11:22:55.078Z,4.50
2017-11-14T11:25:23.438Z,4.87
2017-11-14T11:27:53.091Z,4.60
2017-11-14T11:30:21.114Z,3.97
2017-11-14T11:32:51.996Z,3.40
2017-11-14T11:35:20.008Z,5.17
2017-11-14T11:37:48.015Z,4.47
2017-11-14T11:40:18.264Z,3.73
2017-11-14T11:42:47.066Z,4.13
2017-11-14T11:45:15.089Z,4.10
2017-11-14T11:47:43.133Z,4.03
2017-11-14T11:50:11.091Z,4.50
2017-11-14T11:52:39.286Z,4.17
2017-11-14T11:55:09.167Z,4.57
2017-11-14T11:57:37.180Z,4.73
2017-11-14T12:00:05.161Z,4.00
2017-11-14T12:02:33.192Z,4.40
2017-11-14T12:05:01.119Z,4.93
2017-11-14T12:07:30.187Z,3.90
2017-11-14T12:09:58.204Z,4.33
2017-11-14T12:12:26.232Z,4.43
2017-11-14T12:14:54.204Z,4.90
2017-11-14T12:17:23.068Z,4.17
2017-11-14T12:19:51.049Z,4.50
2017-11-14T12:22:19.203Z,4.47
2017-11-14T12:24:51.661Z,3.80
2017-11-14T12:27:19.668Z,4.57
2017-11-14T12:29:50.155Z,3.80
2017-11-14T12:32:18.184Z,4.53
2017-11-14T12:34:46.177Z,3.93
2017-11-14T12:37:14.159Z,4.20
2017-11-14T12:39:42.112Z,3.95
2017-11-14T12:42:10.095Z,3.50
2017-11-14T12:44:38.014Z,4.20
2017-11-14T12:47:05.967Z,4.72
2017-11-14T12:49:34.742Z,4.15
2017-11-14T12:52:02.695Z,4.40
2017-11-14T12:54:30.708Z,4.25
2017-11-14T12:56:58.613Z,4.22
2017-11-14T12:59:26.609Z,3.75
2017-11-14T13:01:54.598Z,3.60
2017-11-14T13:04:22.599Z,3.90
2017-11-14T13:06:50.515Z,3.72
2017-11-14T13:09:18.540Z,4.15
2017-11-14T13:11:46.452Z,4.30
2017-11-14T13:14:14.439Z,3.62
2017-11-14T13:16:42.365Z,3.85
2017-11-14T13:19:10.383Z,4.30
2017-11-14T13:21:38.543Z,3.95
2017-11-14T13:24:06.514Z,4.87
2017-11-14T13:26:34.414Z,3.20
2017-11-14T13:29:03.123Z,4.53
2017-11-14T13:31:31.074Z,3.15
2017-11-14T13:33:59.715Z,3.70
2017-11-14T13:36:28.244Z,4.12
2017-11-14T13:38:56.213Z,2.92
2017-11-14T13:41:24.095Z,3.33
2017-11-14T13:43:52.025Z,4.22
2017-11-14T13:46:20.110Z,3.55
2017-11-14T13:48:48.110Z,3.40
2017-11-14T13:51:16.010Z,4.00
2017-11-14T13:53:43.905Z,3.60
2017-11-14T13:56:11.855Z,3.70
2017-11-14T13:58:39.739Z,4.00
2017-11-14T14:01:07.721Z,3.78
2017-11-14T14:03:41.541Z,3.60
2017-11-14T14:06:09.505Z,3.85
2017-11-14T14:08:38.171Z,3.95
2017-11-14T14:11:06.146Z,4.45
2017-11-14T14:13:34.053Z,4.43
2017-11-14T14:16:01.997Z,4.87
2017-11-14T14:18:29.907Z,4.82
2017-11-14T14:20:57.833Z,4.20
2017-11-14T14:23:25.726Z,4.22
2017-11-14T14:25:54.482Z,4.45
2017-11-14T14:28:22.406Z,4.57
2017-11-14T14:30:50.353Z,4.05
2017-11-14T14:33:18.292Z,4.97
2017-11-14T14:35:46.240Z,3.85
2017-11-14T14:38:14.114Z,5.00
2017-11-14T14:40:42.060Z,4.40
2017-11-14T14:43:09.948Z,4.35
2017-11-14T14:45:37.902Z,3.85
2017-11-14T14:48:05.852Z,4.03
2017-11-14T14:50:33.793Z,4.30
2017-11-14T14:53:01.682Z,4.10
2017-11-14T14:55:29.638Z,4.78
2017-11-14T14:57:57.545Z,4.47
2017-11-14T15:00:25.497Z,4.70
2017-11-14T15:02:54.597Z,4.00
2017-11-14T15:05:22.522Z,4.57
2017-11-14T15:07:50.466Z,4.55
2017-11-14T15:10:18.358Z,4.10
2017-11-14T15:12:46.334Z,4.32
2017-11-14T15:15:14.237Z,4.40
2017-11-14T15:17:42.179Z,4.05
2017-11-14T15:20:10.088Z,4.50
2017-11-14T15:22:38.040Z,26.98
2017-11-14T15:25:05.975Z,36.90
2017-11-14T15:27:33.923Z,6.10
2017-11-14T15:30:01.908Z,5.62
2017-11-14T15:32:29.966Z,6.00
2017-11-14T15:34:57.876Z,6.20
2017-11-14T15:37:25.815Z,5.80
2017-11-14T15:39:53.718Z,51.50
2017-11-14T15:42:25.633Z,6.57
2017-11-14T15:44:53.532Z,5.95
2017-11-14T15:47:21.489Z,6.00
2017-11-14T15:49:49.386Z,6.43
2017-11-14T15:52:17.333Z,5.87
2017-11-14T15:54:45.219Z,6.70
2017-11-14T15:57:13.183Z,6.97
2017-11-14T15:59:41.084Z,6.28
2017-11-14T16:02:09.052Z,5.80
2017-11-14T16:04:36.949Z,7.60
2017-11-14T16:07:04.843Z,7.07
2017-11-14T16:09:32.805Z,6.85
2017-11-14T16:12:00.703Z,5.82
2017-11-14T16:14:28.700Z,6.20
2017-11-14T16:16:56.782Z,6.60
2017-11-14T16:19:24.728Z,5.85
2017-11-14T16:21:56.460Z,10.38
2017-11-14T16:24:24.448Z,10.07
2017-11-14T16:26:52.339Z,6.65
2017-11-14T16:29:20.291Z,38.97
2017-11-14T16:31:48.300Z,7.70
2017-11-14T16:34:16.285Z,6.72
2017-11-14T16:36:44.235Z,7.87
2017-11-14T16:39:12.175Z,8.48
2017-11-14T16:41:40.837Z,6.95
2017-11-14T16:44:08.856Z,6.75
2017-11-14T16:46:37.358Z,7.50
2017-11-14T16:49:05.382Z,8.18
2017-11-14T16:51:34.060Z,9.68
2017-11-14T16:54:02.777Z,7.25
2017-11-14T16:56:30.701Z,8.25
2017-11-14T16:58:58.688Z,8.35
2017-11-14T17:01:26.610Z,10.95
2017-11-14T17:03:54.579Z,7.62
2017-11-14T17:06:22.511Z,8.90
2017-11-14T17:08:51.241Z,9.32
2017-11-14T17:11:19.214Z,8.20
2017-11-14T17:13:48.342Z,7.37
2017-11-14T17:16:16.228Z,9.35
2017-11-14T17:18:44.234Z,7.72
2017-11-14T17:21:12.143Z,8.27
2017-11-14T17:23:40.059Z,8.13
2017-11-14T17:26:08.011Z,8.80
2017-11-14T17:28:36.672Z,8.77
2017-11-14T17:31:04.665Z,8.13
2017-11-14T17:33:32.575Z,8.50
2017-11-14T17:36:00.512Z,7.20
2017-11-14T17:38:28.403Z,8.15
2017-11-14T17:40:56.355Z,8.45
2017-11-14T17:43:24.509Z,9.93
2017-11-14T17:45:53.211Z,10.20
2017-11-14T17:48:21.177Z,9.55
2017-11-14T17:50:49.141Z,9.13
2017-11-14T17:53:17.835Z,10.43
2017-11-14T17:55:45.799Z,10.73
2017-11-14T17:58:14.466Z,11.52
2017-11-14T18:00:42.427Z,12.02
2017-11-14T18:03:10.357Z,10.18
2017-11-14T18:05:38.312Z,10.35
2017-11-14T18:08:06.233Z,11.70
2017-11-14T18:10:34.178Z,10.02
2017-11-14T18:13:02.069Z,12.32
2017-11-14T18:15:30.056Z,10.88
2017-11-14T18:17:57.951Z,11.05
2017-11-14T18:20:25.902Z,13.23
2017-11-14T18:22:53.817Z,11.52
2017-11-14T18:25:21.709Z,11.15
2017-11-14T18:27:49.668Z,10.35
2017-11-14T18:30:17.549Z,9.52
2017-11-14T18:32:45.509Z,11.18
2017-11-14T18:35:18.745Z,11.63
2017-11-14T18:37:46.986Z,10.70
2017-11-14T18:40:15.095Z,11.75
2017-11-14T18:42:43.840Z,11.98
2017-11-14T18:45:11.760Z,10.88
2017-11-14T18:47:39.717Z,11.80
2017-11-14T18:50:08.409Z,11.30
2017-11-14T18:52:36.356Z,9.90
2017-11-14T18:55:04.271Z,10.65
2017-11-14T18:57:32.240Z,11.52
2017-11-14T19:00:00.154Z,10.63
2017-11-14T19:02:28.122Z,11.50
2017-11-14T19:04:56.029Z,12.88
2017-11-14T19:07:23.945Z,9.15
2017-11-14T19:09:51.879Z,13.57
2017-11-14T19:12:21.938Z,10.15
2017-11-14T19:14:49.894Z,12.45
2017-11-14T19:17:17.838Z,11.38
2017-11-14T19:19:45.791Z,11.40
2017-11-14T19:22:14.495Z,11.50
2017-11-14T19:24:42.394Z,12.18
2017-11-14T19:27:10.336Z,11.95
2017-11-14T19:29:38.288Z,11.98
2017-11-14T19:32:07.098Z,11.43
2017-11-14T19:34:34.998Z,13.50
2017-11-14T19:37:02.911Z,12.80
2017-11-14T19:39:30.923Z,12.40
2017-11-14T19:41:58.835Z,13.15
2017-11-14T19:44:26.806Z,20.55
2017-11-14T19:46:54.710Z,12.23
2017-11-14T19:49:22.680Z,12.52
2017-11-14T19:51:50.587Z,11.50
2017-11-14T19:54:18.533Z,12.55
2017-11-14T19:56:46.645Z,11.85
2017-11-14T19:59:14.599Z,11.73
2017-11-14T20:01:42.504Z,12.20
2017-11-14T20:04:10.470Z,11.88
2017-11-14T20:06:38.381Z,10.82
2017-11-14T20:09:06.351Z,11.80
2017-11-14T20:11:34.257Z,11.55
2017-11-14T20:14:02.297Z,10.98
2017-11-14T20:16:32.521Z,11.98
2017-11-14T20:19:00.483Z,12.05
2017-11-14T20:21:28.475Z,13.30
2017-11-14T20:23:57.571Z,12.32
2017-11-14T20:26:25.495Z,11.35
2017-11-14T20:28:53.494Z,10.82
2017-11-14T20:31:21.398Z,12.07
2017-11-14T20:33:49.402Z,11.00
2017-11-14T20:36:18.065Z,11.48
2017-11-14T20:38:46.117Z,11.10
2017-11-14T20:41:14.003Z,11.38
2017-11-14T20:43:41.912Z,12.68
2017-11-14T20:46:09.973Z,11.85
2017-11-14T20:48:37.893Z,10.48
2017-11-14T20:51:07.639Z,12.25
2017-11-14T20:53:35.629Z,10.50
2017-11-14T20:56:04.372Z,12.05
2017-11-14T20:58:32.275Z,10.80
2017-11-14T21:01:01.045Z,10.85
2017-11-14T21:03:29.000Z,10.77
2017-11-14T21:05:56.965Z,10.07
2017-11-14T21:08:24.929Z,12.80
2017-11-14T21:10:52.951Z,10.65
2017-11-14T21:13:21.626Z,10.73
2017-11-14T21:15:49.583Z,11.23
2017-11-14T21:18:17.482Z,10.82
2017-11-14T21:20:46.189Z,12.68
2017-11-14T21:23:14.267Z,12.65
2017-11-14T21:25:42.269Z,11.70
2017-11-14T21:28:11.802Z,11.50
2017-11-14T21:30:39.820Z,12.13
2017-11-14T21:33:07.737Z,10.80
2017-11-14T21:35:35.688Z,11.40
2017-11-14T21:38:03.649Z,10.05
2017-11-14T21:40:31.601Z,12.43
2017-11-14T21:42:59.501Z,10.93
2017-11-14T21:45:27.545Z,11.85
2017-11-14T21:47:55.444Z,10.75
2017-11-14T21:50:23.436Z,12.63
2017-11-14T21:52:52.369Z,11.73
2017-11-14T21:55:20.263Z,12.55
2017-11-14T21:57:48.225Z,12.77
2017-11-14T22:00:16.131Z,12.80
2017-11-14T22:02:44.103Z,12.80
2017-11-14T22:05:12.043Z,12.02
2017-11-14T22:07:39.983Z,11.52
2017-11-14T22:10:07.887Z,12.15
2017-11-14T22:12:35.831Z,11.98
2017-11-14T22:15:03.759Z,11.68
2017-11-14T22:17:31.718Z,12.43
2017-11-14T22:19:59.624Z,13.13
2017-11-14T22:22:27.728Z,13.43
2017-11-14T22:24:55.651Z,12.15
2017-11-14T22:27:23.820Z,12.30
2017-11-14T22:29:52.591Z,14.70
2017-11-14T22:32:20.533Z,12.27
2017-11-14T22:34:48.443Z,13.48
2017-11-14T22:37:16.393Z,13.70
2017-11-14T22:39:44.286Z,14.25
2017-11-14T22:42:14.144Z,13.45
2017-11-14T22:44:42.058Z,13.15
2017-11-14T22:47:10.006Z,12.82
2017-11-14T22:49:37.917Z,13.35
2017-11-14T22:52:09.815Z,13.40
2017-11-14T22:54:37.729Z,13.68
2017-11-14T22:57:05.696Z,14.18
2017-11-14T22:59:33.622Z,12.60
2017-11-14T23:02:01.599Z,15.68
2017-11-14T23:04:29.496Z,14.60
2017-11-14T23:06:57.398Z,14.70
2017-11-14T23:09:25.353Z,14.65
2017-11-14T23:11:54.037Z,14.07
2017-11-14T23:14:22.770Z,15.70
2017-11-14T23:16:50.657Z,13.90
2017-11-14T23:19:18.669Z,14.70
2017-11-14T23:21:46.639Z,16.20
2017-11-14T23:24:15.355Z,14.87
2017-11-14T23:26:43.262Z,15.18
2017-11-14T23:29:11.221Z,14.52
2017-11-14T23:31:39.146Z,15.60
2017-11-14T23:34:07.599Z,16.92
2017-11-14T23:36:36.605Z,15.43
2017-11-14T23:39:05.357Z,15.55
2017-11-14T23:41:33.263Z,14.60
2017-11-14T23:44:02.096Z,15.00
2017-11-14T23:46:30.296Z,14.80
2017-11-14T23:48:58.465Z,14.55
2017-11-14T23:51:26.369Z,16.23
2017-11-14T23:53:54.363Z,16.52
2017-11-14T23:56:22.263Z,15.00
2017-11-14T23:58:50.259Z,14.75
